Time,TemperatureF,DewpointF,PressureIn,WindDirection,WindDirectionDegrees,WindSpeedMPH,WindSpeedGustMPH,Humidity,HourlyPrecipIn,Conditions,Clouds,dailyrainin,SoftwareType,DateUTC
2013-02-01 00:05:00,22.3,11.6,29.70,WNW,285,6.0,6.0,63,0.00,,,0.00,Wunderground v.1.15,2013-02-01 05:05:00,
2013-02-01 00:15:00,22.3,11.6,29.70,NW,304,6.0,8.0,63,0.00,,,0.00,Wunderground v.1.15,2013-02-01 05:15:00,
2013-02-01 00:20:00,22.2,11.9,29.70,WNW,284,6.0,6.0,64,0.00,,,0.00,Wunderground v.1.15,2013-02-01 05:20:00,
2013-02-01 00:25:00,22.1,12.1,29.70,West,276,4.0,6.0,65,0.00,,,0.00,Wunderground v.1.15,2013-02-01 05:25:00,
2013-02-01 00:35:00,21.9,12.3,29.70,NW,307,4.0,5.0,66,0.00,,,0.00,Wunderground v.1.15,2013-02-01 05:35:00,
2013-02-01 00:40:00,21.9,12.6,29.70,WNW,290,5.0,5.0,67,0.00,,,0.00,Wunderground v.1.15,2013-02-01 05:40:00,
2013-02-01 00:50:00,21.7,12.8,29.70,WNW,291,5.0,5.0,68,0.00,,,0.00,Wunderground v.1.15,2013-02-01 05:50:00,
2013-02-01 01:00:00,21.5,12.9,29.70,WNW,295,3.0,3.0,69,0.00,,,0.00,Wunderground v.1.15,2013-02-01 06:00:00,
2013-02-01 01:10:00,21.2,12.9,29.70,SW,218,3.0,4.0,70,0.00,,,0.00,Wunderground v.1.15,2013-02-01 06:10:00,
2013-02-01 01:15:00,21.1,12.8,29.70,SSE,157,3.0,4.0,70,0.00,,,0.00,Wunderground v.1.15,2013-02-01 06:15:00,
2013-02-01 01:25:00,21.2,11.9,29.71,South,186,4.0,6.0,67,0.00,,,0.00,Wunderground v.1.15,2013-02-01 06:25:00,
2013-02-01 01:30:00,21.2,11.9,29.71,NW,316,4.0,4.0,67,0.00,,,0.00,Wunderground v.1.15,2013-02-01 06:30:00,
2013-02-01 01:40:00,21.4,11.5,29.71,WSW,254,5.0,5.0,65,0.00,,,0.00,Wunderground v.1.15,2013-02-01 06:40:00,
2013-02-01 01:50:00,21.3,11.7,29.72,West,263,3.0,4.0,66,0.00,,,0.00,Wunderground v.1.15,2013-02-01 06:50:00,
2013-02-01 02:00:00,21.2,11.6,29.72,NW,307,4.0,4.0,66,0.00,,,0.00,Wunderground v.1.15,2013-02-01 07:00:00,
2013-02-01 02:10:00,21.2,10.9,29.72,WSW,252,3.0,6.0,64,0.00,,,0.00,Wunderground v.1.15,2013-02-01 07:10:00,
2013-02-01 02:15:00,21.3,11.0,29.72,WNW,297,4.0,6.0,64,0.00,,,0.00,Wunderground v.1.15,2013-02-01 07:15:00,
2013-02-01 02:25:00,21.4,11.1,29.73,WNW,296,5.0,9.0,64,0.00,,,0.00,Wunderground v.1.15,2013-02-01 07:25:00,
2013-02-01 02:30:00,21.3,10.7,29.72,West,281,4.0,4.0,63,0.00,,,0.00,Wunderground v.1.15,2013-02-01 07:30:00,
2013-02-01 02:35:00,21.2,11.3,29.72,West,262,4.0,4.0,65,0.00,,,0.00,Wunderground v.1.15,2013-02-01 07:35:00,
2013-02-01 02:40:00,21.1,10.8,29.72,WNW,291,3.0,3.0,64,0.00,,,0.00,Wunderground v.1.15,2013-02-01 07:40:00,
2013-02-01 02:50:00,20.9,11.0,29.72,West,269,3.0,3.0,65,0.00,,,0.00,Wunderground v.1.15,2013-02-01 07:50:00,
2013-02-01 02:55:00,20.9,11.0,29.72,WSW,243,3.0,4.0,65,0.00,,,0.00,Wunderground v.1.15,2013-02-01 07:55:00,
2013-02-01 03:00:00,20.9,10.6,29.72,WNW,299,3.0,3.0,64,0.00,,,0.00,Wunderground v.1.15,2013-02-01 08:00:00,
2013-02-01 03:10:00,20.8,10.9,29.73,SSW,201,3.0,3.0,65,0.00,,,0.00,Wunderground v.1.15,2013-02-01 08:10:00,
2013-02-01 03:20:00,20.4,11.2,29.73,WSW,250,2.0,2.0,67,0.00,,,0.00,Wunderground v.1.15,2013-02-01 08:20:00,
2013-02-01 03:30:00,20.3,11.1,29.73,West,271,3.0,3.0,67,0.00,,,0.00,Wunderground v.1.15,2013-02-01 08:30:00,
2013-02-01 03:40:00,20.2,11.0,29.73,SSW,211,2.0,2.0,67,0.00,,,0.00,Wunderground v.1.15,2013-02-01 08:40:00,
2013-02-01 03:45:00,20.1,10.9,29.73,WSW,238,3.0,3.0,67,0.00,,,0.00,Wunderground v.1.15,2013-02-01 08:45:00,
2013-02-01 03:55:00,20.4,10.8,29.73,NW,311,4.0,13.0,66,0.00,,,0.00,Wunderground v.1.15,2013-02-01 08:55:00,
2013-02-01 04:00:00,20.5,10.9,29.73,WSW,248,5.0,5.0,66,0.00,,,0.00,Wunderground v.1.15,2013-02-01 09:00:00,
2013-02-01 04:10:00,20.4,11.2,29.74,West,278,4.0,5.0,67,0.00,,,0.00,Wunderground v.1.15,2013-02-01 09:10:00,
2013-02-01 04:20:00,20.5,11.3,29.74,WNW,292,5.0,5.0,67,0.00,,,0.00,Wunderground v.1.15,2013-02-01 09:20:00,
2013-02-01 04:30:00,20.4,11.5,29.73,SW,224,4.0,4.0,68,0.00,,,0.00,Wunderground v.1.15,2013-02-01 09:30:00,
2013-02-01 04:40:00,20.2,11.3,29.74,WNW,293,4.0,4.0,68,0.00,,,0.00,Wunderground v.1.15,2013-02-01 09:40:00,
2013-02-01 04:45:00,20.0,11.1,29.74,West,276,4.0,5.0,68,0.00,,,0.00,Wunderground v.1.15,2013-02-01 09:45:00,
2013-02-01 04:55:00,19.8,11.3,29.74,West,271,5.0,5.0,69,0.00,,,0.00,Wunderground v.1.15,2013-02-01 09:55:00,
2013-02-01 05:00:00,19.8,11.3,29.75,SW,234,4.0,5.0,69,0.00,,,0.00,Wunderground v.1.15,2013-02-01 10:00:00,
2013-02-01 05:05:00,19.7,11.2,29.75,SW,219,4.0,5.0,69,0.00,,,0.00,Wunderground v.1.15,2013-02-01 10:05:00,
2013-02-01 05:10:00,19.8,11.6,29.75,SW,236,4.0,6.0,70,0.00,,,0.00,Wunderground v.1.15,2013-02-01 10:10:00,
2013-02-01 05:20:00,19.8,11.6,29.76,SW,236,3.0,4.0,70,0.00,,,0.00,Wunderground v.1.15,2013-02-01 10:20:00,
2013-02-01 05:25:00,19.9,11.7,29.76,WNW,302,4.0,7.0,70,0.00,,,0.00,Wunderground v.1.15,2013-02-01 10:25:00,
2013-02-01 05:30:00,20.0,11.8,29.76,WNW,301,4.0,10.0,70,0.00,,,0.00,Wunderground v.1.15,2013-02-01 10:30:00,
2013-02-01 05:40:00,20.1,11.9,29.76,WSW,243,5.0,5.0,70,0.00,,,0.00,Wunderground v.1.15,2013-02-01 10:40:00,
2013-02-01 05:50:00,20.0,11.5,29.77,WNW,286,5.0,5.0,69,0.00,,,0.00,Wunderground v.1.15,2013-02-01 10:50:00,
2013-02-01 06:00:00,19.9,12.0,29.78,SW,221,5.0,5.0,71,0.00,,,0.00,Wunderground v.1.15,2013-02-01 11:00:00,
2013-02-01 06:05:00,19.7,12.8,29.78,WNW,292,4.0,5.0,74,0.00,,,0.00,Wunderground v.1.15,2013-02-01 11:05:00,
2013-02-01 06:10:00,19.5,13.5,29.78,WNW,290,4.0,4.0,77,0.00,,,0.00,Wunderground v.1.15,2013-02-01 11:10:00,
2013-02-01 06:20:00,19.2,13.8,29.79,WNW,295,4.0,4.0,79,0.00,,,0.00,Wunderground v.1.15,2013-02-01 11:20:00,
2013-02-01 06:25:00,19.0,13.8,29.79,West,271,4.0,4.0,80,0.00,,,0.00,Wunderground v.1.15,2013-02-01 11:25:00,
2013-02-01 06:35:00,19.0,13.8,29.80,WNW,300,4.0,8.0,80,0.00,,,0.00,Wunderground v.1.15,2013-02-01 11:35:00,
2013-02-01 06:40:00,19.0,13.8,29.80,West,269,2.0,5.0,80,0.00,,,0.00,Wunderground v.1.15,2013-02-01 11:40:00,
2013-02-01 06:50:00,19.0,13.8,29.81,West,267,4.0,4.0,80,0.00,,,0.00,Wunderground v.1.15,2013-02-01 11:50:00,
2013-02-01 07:00:00,19.0,13.6,29.82,SW,226,5.0,5.0,79,0.00,,,0.00,Wunderground v.1.15,2013-02-01 12:00:00,
2013-02-01 07:05:00,19.0,13.6,29.82,WSW,252,6.0,6.0,79,0.00,,,0.00,Wunderground v.1.15,2013-02-01 12:05:00,
2013-02-01 07:10:00,19.1,13.7,29.82,WNW,285,6.0,6.0,79,0.00,,,0.00,Wunderground v.1.15,2013-02-01 12:10:00,
2013-02-01 07:20:00,19.2,14.3,29.83,WNW,299,4.0,4.0,81,0.00,,,0.00,Wunderground v.1.15,2013-02-01 12:20:00,
2013-02-01 07:30:00,19.2,14.6,29.83,WNW,284,4.0,6.0,82,0.00,,,0.00,Wunderground v.1.15,2013-02-01 12:30:00,
2013-02-01 07:40:00,19.0,15.5,29.85,NW,304,5.0,9.0,86,0.00,,,0.00,Wunderground v.1.15,2013-02-01 12:40:00,
2013-02-01 07:45:00,19.1,15.3,29.85,WNW,300,5.0,9.0,85,0.00,,,0.00,Wunderground v.1.15,2013-02-01 12:45:00,
2013-02-01 07:55:00,18.9,15.9,29.86,WNW,293,5.0,5.0,88,0.00,,,0.00,Wunderground v.1.15,2013-02-01 12:55:00,
2013-02-01 08:05:00,18.9,15.9,29.87,WNW,295,4.0,8.0,88,0.00,,,0.00,Wunderground v.1.15,2013-02-01 13:05:00,
2013-02-01 08:15:00,19.0,16.0,29.87,NW,304,5.0,5.0,88,0.00,,,0.00,Wunderground v.1.15,2013-02-01 13:15:00,
2013-02-01 08:20:00,19.0,16.0,29.88,NW,317,4.0,4.0,88,0.00,,,0.00,Wunderground v.1.15,2013-02-01 13:20:00,
2013-02-01 08:30:00,19.0,16.0,29.89,West,271,3.0,3.0,88,0.00,,,0.00,Wunderground v.1.15,2013-02-01 13:30:00,
2013-02-01 08:40:00,18.9,16.5,29.89,NNE,13,3.0,5.0,90,0.00,,,0.00,Wunderground v.1.15,2013-02-01 13:40:00,
2013-02-01 08:45:00,18.3,15.6,29.89,NW,314,5.0,8.0,89,0.00,,,0.00,Wunderground v.1.15,2013-02-01 13:45:00,
2013-02-01 08:55:00,18.3,15.6,29.90,NW,314,6.0,7.0,89,0.00,,,0.00,Wunderground v.1.15,2013-02-01 13:55:00,
2013-02-01 09:05:00,18.5,14.7,29.90,NW,307,5.0,6.0,85,0.00,,,0.00,Wunderground v.1.15,2013-02-01 14:05:00,
2013-02-01 09:10:00,18.5,14.7,29.91,NNW,330,5.0,5.0,85,0.00,,,0.00,Wunderground v.1.15,2013-02-01 14:10:00,
2013-02-01 09:20:00,18.7,14.4,29.91,North,350,6.0,6.0,83,0.00,,,0.00,Wunderground v.1.15,2013-02-01 14:20:00,
2013-02-01 09:30:00,18.7,13.8,29.92,WNW,292,6.0,9.0,81,0.00,,,0.00,Wunderground v.1.15,2013-02-01 14:30:00,
2013-02-01 09:40:00,18.7,13.6,29.92,NNW,330,6.0,6.0,80,0.00,,,0.00,Wunderground v.1.15,2013-02-01 14:40:00,
2013-02-01 09:45:00,18.6,13.2,29.93,NNW,346,6.0,10.0,79,0.00,,,0.00,Wunderground v.1.15,2013-02-01 14:45:00,
2013-02-01 09:55:00,18.6,12.3,29.93,NW,310,7.0,13.0,76,0.00,,,0.00,Wunderground v.1.15,2013-02-01 14:55:00,
2013-02-01 10:00:00,18.6,11.7,29.94,WNW,295,7.0,7.0,74,0.00,,,0.00,Wunderground v.1.15,2013-02-01 15:00:00,
2013-02-01 10:05:00,18.8,12.2,29.94,WNW,302,6.0,9.0,75,0.00,,,0.00,Wunderground v.1.15,2013-02-01 15:05:00,
2013-02-01 10:15:00,19.2,12.3,29.94,WNW,303,7.0,7.0,74,0.00,,,0.00,Wunderground v.1.15,2013-02-01 15:15:00,
2013-02-01 10:25:00,19.7,12.4,29.95,WNW,286,7.0,8.0,73,0.00,,,0.00,Wunderground v.1.15,2013-02-01 15:25:00,
2013-02-01 10:30:00,20.2,12.9,29.95,NW,318,6.0,6.0,73,0.00,,,0.00,Wunderground v.1.15,2013-02-01 15:30:00,
2013-02-01 10:40:00,20.1,12.2,29.96,WNW,292,7.0,7.0,71,0.00,,,0.00,Wunderground v.1.15,2013-02-01 15:40:00,
2013-02-01 10:50:00,20.2,12.0,29.96,North,355,7.0,7.0,70,0.00,,,0.00,Wunderground v.1.15,2013-02-01 15:50:00,
2013-02-01 11:00:00,20.5,12.6,29.97,North,351,6.0,6.0,71,0.00,,,0.00,Wunderground v.1.15,2013-02-01 16:00:00,
2013-02-01 11:10:00,21.3,13.0,29.97,NW,309,6.0,6.0,70,0.00,,,0.00,Wunderground v.1.15,2013-02-01 16:10:00,
2013-02-01 11:20:00,21.7,12.8,29.97,NW,323,7.0,7.0,68,0.00,,,0.00,Wunderground v.1.15,2013-02-01 16:20:00,
2013-02-01 11:25:00,21.5,12.9,29.98,West,265,7.0,12.0,69,0.00,,,0.00,Wunderground v.1.15,2013-02-01 16:25:00,
2013-02-01 11:30:00,21.3,14.0,29.98,NNW,327,8.0,8.0,73,0.00,,,0.00,Wunderground v.1.15,2013-02-01 16:30:00,
2013-02-01 11:40:00,21.5,15.1,29.98,NNW,345,6.0,7.0,76,0.00,,,0.00,Wunderground v.1.15,2013-02-01 16:40:00,
2013-02-01 11:50:00,20.2,14.4,29.99,NW,305,7.0,7.0,78,0.00,,,0.00,Wunderground v.1.15,2013-02-01 16:50:00,
2013-02-01 12:05:00,20.1,12.5,29.99,NNW,347,6.0,6.0,72,0.00,,,0.00,Wunderground v.1.15,2013-02-01 17:05:00,
2013-02-01 12:15:00,20.0,11.8,29.99,WNW,288,5.0,10.0,70,0.00,,,0.00,Wunderground v.1.15,2013-02-01 17:15:00,
2013-02-01 12:25:00,20.1,11.9,29.99,WNW,290,5.0,9.0,70,0.00,,,0.00,Wunderground v.1.15,2013-02-01 17:25:00,
2013-02-01 12:30:00,20.1,11.6,29.99,NNW,340,5.0,10.0,69,0.00,,,0.00,Wunderground v.1.15,2013-02-01 17:30:00,
2013-02-01 12:40:00,20.0,12.7,29.99,NNW,340,6.0,6.0,73,0.00,,,0.00,Wunderground v.1.15,2013-02-01 17:40:00,
2013-02-01 12:45:00,20.2,13.2,29.99,WNW,291,5.0,6.0,74,0.00,,,0.00,Wunderground v.1.15,2013-02-01 17:45:00,
2013-02-01 12:55:00,20.3,12.7,29.99,NW,326,7.0,12.0,72,0.00,,,0.00,Wunderground v.1.15,2013-02-01 17:55:00,
2013-02-01 13:05:00,21.7,15.3,30.00,NW,310,5.0,6.0,76,0.00,,,0.00,Wunderground v.1.15,2013-02-01 18:05:00,
2013-02-01 13:10:00,21.9,14.3,30.00,NW,304,5.0,5.0,72,0.00,,,0.00,Wunderground v.1.15,2013-02-01 18:10:00,
2013-02-01 13:20:00,20.7,14.6,30.00,NNW,340,5.0,5.0,77,0.00,,,0.00,Wunderground v.1.15,2013-02-01 18:20:00,
2013-02-01 13:30:00,21.0,14.0,30.00,NNW,333,5.0,5.0,74,0.00,,,0.00,Wunderground v.1.15,2013-02-01 18:30:00,
2013-02-01 13:40:00,22.9,14.2,30.00,WNW,293,3.0,8.0,69,0.00,,,0.00,Wunderground v.1.15,2013-02-01 18:40:00,
2013-02-01 13:45:00,22.8,12.4,30.00,NNW,341,6.0,8.0,64,0.00,,,0.00,Wunderground v.1.15,2013-02-01 18:45:00,
2013-02-01 13:55:00,22.6,11.9,30.00,West,269,7.0,7.0,63,0.00,,,0.00,Wunderground v.1.15,2013-02-01 18:55:00,
2013-02-01 14:00:00,23.0,11.9,30.01,NW,310,7.0,10.0,62,0.00,,,0.00,Wunderground v.1.15,2013-02-01 19:00:00,
2013-02-01 14:05:00,23.1,11.6,30.01,NW,315,7.0,10.0,61,0.00,,,0.00,Wunderground v.1.15,2013-02-01 19:05:00,
2013-02-01 14:10:00,23.4,10.8,30.01,WNW,299,7.0,7.0,58,0.00,,,0.00,Wunderground v.1.15,2013-02-01 19:10:00,
2013-02-01 14:20:00,22.1,9.6,30.01,NW,319,8.0,8.0,58,0.00,,,0.00,Wunderground v.1.15,2013-02-01 19:20:00,
2013-02-01 14:30:00,21.3,8.8,30.01,NNW,338,8.0,12.0,58,0.00,,,0.00,Wunderground v.1.15,2013-02-01 19:30:00,
2013-02-01 14:40:00,21.1,9.0,30.02,WNW,285,9.0,9.0,59,0.00,,,0.00,Wunderground v.1.15,2013-02-01 19:40:00,
2013-02-01 14:50:00,21.3,9.6,30.02,NNW,333,7.0,11.0,60,0.00,,,0.00,Wunderground v.1.15,2013-02-01 19:50:00,
2013-02-01 15:00:00,21.7,9.6,30.02,NW,316,6.0,8.0,59,0.00,,,0.00,Wunderground v.1.15,2013-02-01 20:00:00,
2013-02-01 15:10:00,22.0,8.3,30.02,NNW,328,8.0,8.0,55,0.00,,,0.00,Wunderground v.1.15,2013-02-01 20:10:00,
2013-02-01 15:20:00,21.3,8.8,30.04,NW,307,8.0,8.0,58,0.00,,,0.00,Wunderground v.1.15,2013-02-01 20:20:00,
2013-02-01 15:30:00,21.4,8.5,30.04,WNW,288,8.0,8.0,57,0.00,,,0.00,Wunderground v.1.15,2013-02-01 20:30:00,
2013-02-01 15:40:00,21.6,9.1,30.04,WNW,295,7.0,7.0,58,0.00,,,0.00,Wunderground v.1.15,2013-02-01 20:40:00,
2013-02-01 15:50:00,21.2,9.1,30.05,WNW,293,5.0,5.0,59,0.00,,,0.00,Wunderground v.1.15,2013-02-01 20:50:00,
2013-02-01 16:00:00,20.4,8.7,30.06,WNW,300,8.0,11.0,60,0.00,,,0.00,Wunderground v.1.15,2013-02-01 21:00:00,
2013-02-01 16:10:00,20.3,9.0,30.06,NW,314,7.0,7.0,61,0.00,,,0.00,Wunderground v.1.15,2013-02-01 21:10:00,
2013-02-01 16:20:00,20.5,9.2,30.06,West,272,6.0,6.0,61,0.00,,,0.00,Wunderground v.1.15,2013-02-01 21:20:00,
2013-02-01 16:30:00,20.4,8.7,30.07,NW,304,6.0,8.0,60,0.00,,,0.00,Wunderground v.1.15,2013-02-01 21:30:00,
2013-02-01 16:40:00,20.1,8.8,30.07,WNW,299,5.0,5.0,61,0.00,,,0.00,Wunderground v.1.15,2013-02-01 21:40:00,
2013-02-01 16:45:00,20.0,8.7,30.07,North,354,4.0,13.0,61,0.00,,,0.00,Wunderground v.1.15,2013-02-01 21:45:00,
2013-02-01 16:55:00,19.9,9.3,30.08,West,278,4.0,8.0,63,0.00,,,0.00,Wunderground v.1.15,2013-02-01 21:55:00,
2013-02-01 17:00:00,20.0,9.1,30.08,NW,304,5.0,5.0,62,0.00,,,0.00,Wunderground v.1.15,2013-02-01 22:00:00,
2013-02-01 17:10:00,19.9,9.0,30.08,NW,304,4.0,4.0,62,0.00,,,0.00,Wunderground v.1.15,2013-02-01 22:10:00,
2013-02-01 17:20:00,19.5,8.6,30.08,NNW,332,3.0,7.0,62,0.00,,,0.00,Wunderground v.1.15,2013-02-01 22:20:00,
2013-02-01 17:30:00,19.1,9.3,30.09,WNW,300,7.0,9.0,65,0.00,,,0.00,Wunderground v.1.15,2013-02-01 22:30:00,
2013-02-01 17:40:00,18.8,9.6,30.10,NW,317,6.0,6.0,67,0.00,,,0.00,Wunderground v.1.15,2013-02-01 22:40:00,
2013-02-01 17:50:00,18.5,9.4,30.11,NW,319,3.0,6.0,67,0.00,,,0.00,Wunderground v.1.15,2013-02-01 22:50:00,
2013-02-01 17:55:00,18.4,9.6,30.10,NNW,345,3.0,6.0,68,0.00,,,0.00,Wunderground v.1.15,2013-02-01 22:55:00,
2013-02-01 18:00:00,18.4,9.6,30.11,WNW,300,4.0,8.0,68,0.00,,,0.00,Wunderground v.1.15,2013-02-01 23:00:00,
2013-02-01 18:10:00,18.2,9.7,30.11,NW,307,3.0,3.0,69,0.00,,,0.00,Wunderground v.1.15,2013-02-01 23:10:00,
2013-02-01 18:20:00,17.9,9.4,30.12,West,276,2.0,3.0,69,0.00,,,0.00,Wunderground v.1.15,2013-02-01 23:20:00,
2013-02-01 18:30:00,18.0,9.2,30.13,NW,304,3.0,3.0,68,0.00,,,0.00,Wunderground v.1.15,2013-02-01 23:30:00,
2013-02-01 18:40:00,17.9,9.1,30.13,West,281,3.0,3.0,68,0.00,,,0.00,Wunderground v.1.15,2013-02-01 23:40:00,
2013-02-01 18:50:00,17.9,9.1,30.13,NNW,347,4.0,4.0,68,0.00,,,0.00,Wunderground v.1.15,2013-02-01 23:50:00,
2013-02-01 19:00:00,17.9,9.4,30.14,NW,309,3.0,7.0,69,0.00,,,0.00,Wunderground v.1.15,2013-02-02 00:00:00,
2013-02-01 19:10:00,17.9,9.8,30.14,NW,315,3.0,3.0,70,0.00,,,0.00,Wunderground v.1.15,2013-02-02 00:10:00,
2013-02-01 19:20:00,17.9,9.8,30.14,NW,310,3.0,5.0,70,0.00,,,0.00,Wunderground v.1.15,2013-02-02 00:20:00,
2013-02-01 19:30:00,17.9,10.1,30.15,West,268,3.0,7.0,71,0.00,,,0.00,Wunderground v.1.15,2013-02-02 00:30:00,
2013-02-01 19:35:00,18.0,10.8,30.15,WSW,255,3.0,7.0,73,0.00,,,0.00,Wunderground v.1.15,2013-02-02 00:35:00,
2013-02-01 19:45:00,18.0,11.4,30.15,WNW,300,3.0,3.0,75,0.00,,,0.00,Wunderground v.1.15,2013-02-02 00:45:00,
2013-02-01 19:55:00,18.1,11.8,30.16,WSW,237,2.0,3.0,76,0.00,,,0.00,Wunderground v.1.15,2013-02-02 00:55:00,
2013-02-01 20:05:00,18.1,12.1,30.16,West,273,3.0,4.0,77,0.00,,,0.00,Wunderground v.1.15,2013-02-02 01:05:00,
2013-02-01 20:10:00,18.2,12.5,30.16,West,273,3.0,3.0,78,0.00,,,0.00,Wunderground v.1.15,2013-02-02 01:10:00,
2013-02-01 20:20:00,18.4,12.7,30.16,WNW,286,4.0,4.0,78,0.00,,,0.00,Wunderground v.1.15,2013-02-02 01:20:00,
2013-02-01 20:30:00,18.4,13.3,30.16,WNW,293,4.0,8.0,80,0.00,,,0.00,Wunderground v.1.15,2013-02-02 01:30:00,
2013-02-01 20:40:00,18.5,13.1,30.16,NW,311,5.0,6.0,79,0.00,,,0.00,Wunderground v.1.15,2013-02-02 01:40:00,
2013-02-01 20:45:00,18.5,13.4,30.16,WNW,293,4.0,6.0,80,0.00,,,0.00,Wunderground v.1.15,2013-02-02 01:45:00,
2013-02-01 20:55:00,18.5,13.1,30.16,West,270,4.0,4.0,79,0.00,,,0.00,Wunderground v.1.15,2013-02-02 01:55:00,
2013-02-01 21:00:00,18.5,13.1,30.17,West,272,4.0,4.0,79,0.00,,,0.00,Wunderground v.1.15,2013-02-02 02:00:00,
2013-02-01 21:05:00,18.5,13.1,30.17,West,264,4.0,4.0,79,0.00,,,0.00,Wunderground v.1.15,2013-02-02 02:05:00,
2013-02-01 21:10:00,18.6,13.2,30.17,WNW,289,4.0,4.0,79,0.00,,,0.00,Wunderground v.1.15,2013-02-02 02:10:00,
2013-02-01 21:20:00,18.6,12.9,30.17,West,278,5.0,5.0,78,0.00,,,0.00,Wunderground v.1.15,2013-02-02 02:20:00,
2013-02-01 21:25:00,18.6,12.9,30.17,NW,319,4.0,5.0,78,0.00,,,0.00,Wunderground v.1.15,2013-02-02 02:25:00,
2013-02-01 21:30:00,18.6,12.6,30.18,SSW,208,4.0,4.0,77,0.00,,,0.00,Wunderground v.1.15,2013-02-02 02:30:00,
2013-02-01 21:40:00,18.7,12.4,30.18,WNW,297,4.0,4.0,76,0.00,,,0.00,Wunderground v.1.15,2013-02-02 02:40:00,
2013-02-01 21:45:00,18.7,12.1,30.18,WNW,300,4.0,4.0,75,0.00,,,0.00,Wunderground v.1.15,2013-02-02 02:45:00,
2013-02-01 21:55:00,18.7,12.1,30.18,West,281,4.0,4.0,75,0.00,,,0.00,Wunderground v.1.15,2013-02-02 02:55:00,
2013-02-01 22:00:00,18.8,12.2,30.18,West,262,4.0,4.0,75,0.00,,,0.00,Wunderground v.1.15,2013-02-02 03:00:00,
2013-02-01 22:05:00,18.7,12.1,30.18,NW,307,4.0,4.0,75,0.00,,,0.00,Wunderground v.1.15,2013-02-02 03:05:00,
2013-02-01 22:15:00,18.7,12.1,30.19,WSW,238,4.0,5.0,75,0.00,,,0.00,Wunderground v.1.15,2013-02-02 03:15:00,
2013-02-01 22:25:00,18.6,12.0,30.19,WNW,285,3.0,6.0,75,0.00,,,0.00,Wunderground v.1.15,2013-02-02 03:25:00,
2013-02-01 22:30:00,18.5,11.9,30.19,NNW,331,3.0,3.0,75,0.00,,,0.00,Wunderground v.1.15,2013-02-02 03:30:00,
2013-02-01 22:40:00,18.3,11.4,30.19,WNW,289,3.0,8.0,74,0.00,,,0.00,Wunderground v.1.15,2013-02-02 03:40:00,
2013-02-01 22:50:00,18.2,11.0,30.19,SW,225,3.0,4.0,73,0.00,,,0.00,Wunderground v.1.15,2013-02-02 03:50:00,
2013-02-01 23:00:00,18.0,10.5,30.19,WSW,248,3.0,6.0,72,0.00,,,0.00,Wunderground v.1.15,2013-02-02 04:00:00,
2013-02-01 23:10:00,17.9,10.1,30.20,WNW,283,3.0,4.0,71,0.00,,,0.00,Wunderground v.1.15,2013-02-02 04:10:00,
2013-02-01 23:20:00,17.7,9.9,30.19,WNW,284,3.0,3.0,71,0.00,,,0.00,Wunderground v.1.15,2013-02-02 04:20:00,
2013-02-01 23:30:00,17.3,9.5,30.20,WNW,296,1.0,3.0,71,0.00,,,0.00,Wunderground v.1.15,2013-02-02 04:30:00,
2013-02-01 23:40:00,16.7,9.2,30.20,SSW,209,1.0,1.0,72,0.00,,,0.00,Wunderground v.1.15,2013-02-02 04:40:00,
2013-02-01 23:50:00,16.1,9.0,30.20,SSW,192,1.0,1.0,73,0.00,,,0.00,Wunderground v.1.15,2013-02-02 04:50:00,